Time;durP1;ratioP1;P1;durP2;ratioP2;P2;SDS_P1;SDS_P2;PMS_P1;PMS_P2;Temp;Humidity;BMP_temperature;BMP_pressure;BME280_temperature;BME280_humidity;BME280_pressure;Samples;Min_cycle;Max_cycle;Signal;HPM_P1;HPM_P2
2023/11/06 00:01:52;;;;;;;14.73;2.95;;;;;;;7.67;100.00;99357.25;4995500;28;20046;-81
2023/11/06 00:04:18;;;;;;;23.15;3.85;;;;;;;7.69;100.00;99365.88;4994955;28;20058;-78
2023/11/06 00:06:43;;;;;;;9.40;2.92;;;;;;;7.70;100.00;99365.72;4993903;28;20463;-76
2023/11/06 00:09:09;;;;;;;12.57;3.00;;;;;;;7.69;100.00;99360.56;4995274;28;20034;-77
2023/11/06 00:11:34;;;;;;;15.82;3.22;;;;;;;7.70;100.00;99360.41;4994004;28;20443;-77
2023/11/06 00:13:59;;;;;;;18.45;3.92;;;;;;;7.72;100.00;99358.44;4995306;28;20061;-77
2023/11/06 00:16:25;;;;;;;18.17;4.10;;;;;;;7.73;100.00;99362.75;4995489;28;20088;-76
2023/11/06 00:18:51;;;;;;;12.05;4.50;;;;;;;7.76;100.00;99367.72;4993996;28;20038;-77
2023/11/06 00:21:21;;;;;;;16.80;4.93;;;;;;;7.79;100.00;99374.50;4995107;28;20026;-77
2023/11/06 00:23:47;;;;;;;19.75;4.88;;;;;;;7.79;100.00;99376.34;4994452;28;20057;-78
2023/11/06 00:26:16;;;;;;;23.10;5.53;;;;;;;7.79;100.00;99385.09;4994861;28;20389;-78
2023/11/06 00:28:42;;;;;;;16.45;4.97;;;;;;;7.81;100.00;99393.75;4994650;28;20098;-77
2023/11/06 00:31:07;;;;;;;19.17;3.97;;;;;;;7.86;100.00;99390.63;4994893;28;20149;-77
2023/11/06 00:33:33;;;;;;;15.93;3.65;;;;;;;7.86;100.00;99393.25;4994189;28;20053;-76
2023/11/06 00:35:59;;;;;;;21.73;3.15;;;;;;;7.85;100.00;99386.31;4994853;28;20057;-76
2023/11/06 00:38:24;;;;;;;11.85;2.35;;;;;;;7.79;100.00;99395.69;4994572;28;20053;-77
2023/11/06 00:40:50;;;;;;;17.10;2.65;;;;;;;7.70;100.00;99386.03;4976806;28;20045;-77
2023/11/06 00:43:15;;;;;;;18.77;3.00;;;;;;;7.63;100.00;99396.44;4994664;28;20510;-77
2023/11/06 00:45:41;;;;;;;10.45;2.08;;;;;;;7.53;100.00;99398.34;4994443;28;20100;-77
2023/11/06 00:48:06;;;;;;;19.63;2.28;;;;;;;7.48;100.00;99390.03;4994800;28;20031;-78
2023/11/06 00:50:33;;;;;;;16.00;2.88;;;;;;;7.46;100.00;99399.94;4992973;28;20038;-78
2023/11/06 00:52:59;;;;;;;9.05;2.25;;;;;;;7.42;100.00;99399.44;4994616;28;20117;-78
2023/11/06 00:55:28;;;;;;;16.42;2.72;;;;;;;7.41;100.00;99409.16;4993419;28;20049;-78
2023/11/06 00:57:54;;;;;;;20.38;2.80;;;;;;;7.44;100.00;99413.34;4994264;28;20038;-78
2023/11/06 01:00:22;;;;;;;19.67;3.45;;;;;;;7.45;100.00;99412.38;4993772;28;20059;-78
2023/11/06 01:02:49;;;;;;;14.07;2.03;;;;;;;7.47;100.00;99412.22;4994136;28;20038;-78
2023/11/06 01:05:14;;;;;;;18.98;2.22;;;;;;;7.47;100.00;99414.84;4994021;28;20031;-78
2023/11/06 01:07:39;;;;;;;9.32;2.13;;;;;;;7.47;100.00;99423.59;4994013;28;20092;-79
2023/11/06 01:10:05;;;;;;;11.30;1.70;;;;;;;7.51;100.00;99429.41;4994069;28;20045;-78
2023/11/06 01:12:31;;;;;;;10.50;2.47;;;;;;;7.54;100.00;99431.78;4993831;28;20038;-79
2023/11/06 01:14:57;;;;;;;7.75;2.58;;;;;;;7.54;100.00;99434.44;4994313;28;20034;-79
2023/11/06 01:17:22;;;;;;;18.73;2.72;;;;;;;7.56;100.00;99445.69;4993802;28;20387;-78
2023/11/06 01:19:48;;;;;;;16.00;2.42;;;;;;;7.57;100.00;99442.06;4993763;28;20085;-79
2023/11/06 01:22:14;;;;;;;11.50;2.55;;;;;;;7.54;100.00;99445.84;4993694;28;20451;-79
2023/11/06 01:24:40;;;;;;;13.65;2.72;;;;;;;7.48;100.00;99450.91;4993550;28;20052;-80
2023/11/06 01:27:06;;;;;;;11.35;2.47;;;;;;;7.43;100.00;99459.28;4993545;28;20038;-80
2023/11/06 01:29:31;;;;;;;14.35;2.95;;;;;;;7.46;100.00;99455.53;4993196;28;20036;-79
2023/11/06 01:31:56;;;;;;;18.58;3.30;;;;;;;7.48;100.00;99461.47;4993851;28;20084;-78
2023/11/06 01:34:22;;;;;;;12.30;2.53;;;;;;;7.51;100.00;99461.19;4993027;28;20117;-79
2023/11/06 01:36:47;;;;;;;14.70;2.50;;;;;;;7.51;100.00;99471.75;4993595;28;20042;-79
2023/11/06 01:39:13;;;;;;;12.55;3.58;;;;;;;7.49;100.00;99481.69;4992953;28;20045;-79
2023/11/06 01:41:38;;;;;;;21.42;2.65;;;;;;;7.45;100.00;99480.31;4993350;28;20058;-80
2023/11/06 01:44:07;;;;;;;16.70;2.70;;;;;;;7.43;100.00;99479.66;4993505;28;20037;-79
2023/11/06 01:46:34;;;;;;;21.20;3.65;;;;;;;7.41;100.00;99474.50;4992322;28;20034;-79
2023/11/06 01:49:00;;;;;;;27.98;4.63;;;;;;;7.37;100.00;99479.25;4993104;28;20065;-79
2023/11/06 01:51:28;;;;;;;21.58;2.95;;;;;;;7.39;100.00;99484.44;4993015;28;20062;-80
2023/11/06 01:53:55;;;;;;;15.02;2.60;;;;;;;7.44;100.00;99486.63;4993232;28;20027;-79
2023/11/06 01:56:20;;;;;;;10.23;2.63;;;;;;;7.45;100.00;99481.16;4992919;28;20033;-79
2023/11/06 01:58:46;;;;;;;10.65;2.33;;;;;;;7.49;100.00;99486.97;4975104;28;20046;-78
2023/11/06 02:01:12;;;;;;;19.23;2.78;;;;;;;7.53;100.00;99483.88;4993064;28;20034;-78
2023/11/06 02:03:39;;;;;;;21.27;3.45;;;;;;;7.57;100.00;99487.06;4992840;28;20070;-78
2023/11/06 02:06:06;;;;;;;13.75;3.17;;;;;;;7.62;100.00;99495.38;4992938;28;20030;-78
2023/11/06 02:08:32;;;;;;;16.27;3.10;;;;;;;7.65;100.00;99499.53;4992896;28;20034;-79
2023/11/06 02:11:01;;;;;;;14.05;3.20;;;;;;;7.68;100.00;99500.03;4992836;28;20054;-79
2023/11/06 02:13:27;;;;;;;10.85;2.97;;;;;;;7.68;100.00;99507.97;4992860;28;20027;-79
2023/11/06 02:15:54;;;;;;;25.85;3.42;;;;;;;7.71;100.00;99507.69;4992137;28;20501;-79
2023/11/06 02:18:21;;;;;;;19.80;2.60;;;;;;;7.72;100.00;99511.19;4993362;28;20030;-79
2023/11/06 02:20:49;;;;;;;16.58;3.20;;;;;;;7.71;100.00;99512.16;4993117;28;20058;-79
2023/11/06 02:23:15;;;;;;;15.35;2.33;;;;;;;7.71;100.00;99518.28;4993127;28;20046;-79
2023/11/06 02:25:40;;;;;;;19.35;2.85;;;;;;;7.72;100.00;99519.94;4992129;28;20026;-78
2023/11/06 02:28:07;;;;;;;10.48;3.03;;;;;;;7.72;100.00;99525.25;4993043;28;20035;-79
2023/11/06 02:30:32;;;;;;;14.95;2.55;;;;;;;7.71;100.00;99526.22;4992974;28;20445;-79
2023/11/06 02:32:58;;;;;;;10.75;2.10;;;;;;;7.71;100.00;99525.38;4992933;28;20113;-78
2023/11/06 02:35:23;;;;;;;9.90;2.58;;;;;;;7.69;100.00;99533.50;4993015;28;20034;-78
2023/11/06 02:37:48;;;;;;;17.33;2.72;;;;;;;7.66;100.00;99523.19;4991563;28;20038;-79
2023/11/06 02:40:14;;;;;;;15.52;2.38;;;;;;;7.61;100.00;99537.88;4993138;28;20100;-79
2023/11/06 02:42:40;;;;;;;11.95;2.53;;;;;;;7.53;100.00;99534.16;4991634;28;20038;-79
2023/11/06 02:45:06;;;;;;;18.38;2.47;;;;;;;7.43;100.00;99533.41;4992167;28;20042;-79
2023/11/06 02:47:31;;;;;;;17.40;2.55;;;;;;;7.31;100.00;99527.50;4996127;28;20103;-79
2023/11/06 02:49:57;;;;;;;17.30;2.55;;;;;;;7.26;100.00;99540.34;4996538;28;20042;-79
2023/11/06 02:52:23;;;;;;;14.18;2.05;;;;;;;7.18;100.00;99538.47;4995457;28;20194;-79
2023/11/06 02:54:48;;;;;;;8.75;1.95;;;;;;;7.13;100.00;99550.47;4996144;28;20312;-78
2023/11/06 02:57:14;;;;;;;13.48;2.60;;;;;;;7.09;100.00;99559.66;4995256;28;20084;-78
2023/11/06 02:59:39;;;;;;;22.63;2.63;;;;;;;7.07;100.00;99563.28;4996401;28;20042;-78
2023/11/06 03:02:05;;;;;;;16.08;2.45;;;;;;;7.04;100.00;99560.94;4996516;28;20498;-78
2023/11/06 03:04:32;;;;;;;22.27;3.08;;;;;;;7.03;100.00;99564.56;4996378;28;20034;-79
2023/11/06 03:06:57;;;;;;;19.73;2.60;;;;;;;6.99;100.00;99565.84;4996322;28;20062;-77
2023/11/06 03:09:24;;;;;;;15.43;2.75;;;;;;;6.95;100.00;99564.47;4994884;28;20102;-78
2023/11/06 03:11:50;;;;;;;12.75;2.05;;;;;;;6.92;100.00;99564.75;4995855;28;20375;-79
2023/11/06 03:14:15;;;;;;;13.18;2.45;;;;;;;6.92;100.00;99563.94;4995041;28;20159;-79
2023/11/06 03:16:41;;;;;;;17.38;2.78;;;;;;;6.92;100.00;99561.28;4994538;28;20049;-77
2023/11/06 03:19:07;;;;;;;21.52;2.58;;;;;;;6.93;100.00;99561.16;4996361;28;20465;-78
2023/11/06 03:21:32;;;;;;;17.27;2.47;;;;;;;6.95;100.00;99571.56;4996048;28;20085;-78
2023/11/06 03:23:58;;;;;;;16.15;2.60;;;;;;;6.98;100.00;99568.63;4995585;28;20026;-79
2023/11/06 03:26:23;;;;;;;14.77;2.47;;;;;;;6.97;100.00;99577.53;4996388;28;20037;-79
2023/11/06 03:28:49;;;;;;;19.65;3.08;;;;;;;6.93;100.00;99578.84;4996418;28;20463;-79
2023/11/06 03:31:14;;;;;;;24.63;2.95;;;;;;;6.94;100.00;99577.84;4995919;28;20028;-78
2023/11/06 03:33:40;;;;;;;12.98;2.60;;;;;;;6.96;100.00;99576.72;4996078;28;20173;-79
2023/11/06 03:36:07;;;;;;;16.45;2.65;;;;;;;6.96;100.00;99578.53;4995814;28;20042;-78
2023/11/06 03:38:33;;;;;;;10.65;2.45;;;;;;;6.96;100.00;99581.19;4994630;28;20383;-81
2023/11/06 03:40:58;;;;;;;14.82;2.53;;;;;;;6.93;100.00;99577.00;4995623;28;20033;-79
2023/11/06 03:43:24;;;;;;;20.35;3.00;;;;;;;6.93;100.00;99576.19;4996072;28;20031;-79
2023/11/06 03:45:50;;;;;;;18.65;2.70;;;;;;;6.94;100.00;99581.34;4995965;28;20037;-78
2023/11/06 03:48:15;;;;;;;16.67;3.40;;;;;;;6.98;100.00;99579.22;4994754;28;20383;-80
2023/11/06 03:50:43;;;;;;;19.52;2.85;;;;;;;7.05;100.00;99586.41;4995316;28;20034;-80
2023/11/06 03:53:13;;;;;;;15.77;2.88;;;;;;;7.13;100.00;99582.19;4995464;28;20125;-78
2023/11/06 03:55:39;;;;;;;11.18;2.90;;;;;;;7.16;100.00;99576.63;4995658;28;20085;-78
2023/11/06 03:58:04;;;;;;;17.13;2.88;;;;;;;7.20;100.00;99584.09;4995198;28;20408;-78
2023/11/06 04:00:30;;;;;;;14.68;2.85;;;;;;;7.20;100.00;99578.00;4995053;28;20046;-79
2023/11/06 04:02:56;;;;;;;18.90;2.58;;;;;;;7.15;100.00;99581.09;4995526;28;20042;-78
2023/11/06 04:05:21;;;;;;;15.60;2.67;;;;;;;7.06;100.00;99588.09;4995363;28;20050;-77
2023/11/06 04:07:46;;;;;;;12.27;2.85;;;;;;;7.01;100.00;99595.59;4995198;28;20075;-77
2023/11/06 04:10:12;;;;;;;9.45;2.40;;;;;;;6.97;100.00;99598.69;4995169;28;20041;-76
2023/11/06 04:12:37;;;;;;;14.95;3.25;;;;;;;6.92;100.00;99595.66;4995155;28;20050;-77
2023/11/06 04:15:05;;;;;;;13.90;2.30;;;;;;;6.90;100.00;99595.81;4994905;28;20037;-77
2023/11/06 04:17:31;;;;;;;18.63;3.00;;;;;;;6.86;100.00;99602.38;4995261;28;20030;-78
2023/11/06 04:19:57;;;;;;;14.30;3.33;;;;;;;6.84;100.00;99602.50;4995165;28;20122;-78
2023/11/06 04:22:22;;;;;;;9.13;1.98;;;;;;;6.79;100.00;99602.13;4994666;28;20038;-78
2023/11/06 04:24:48;;;;;;;15.43;2.00;;;;;;;6.75;100.00;99599.88;4995122;28;20491;-78
2023/11/06 04:27:13;;;;;;;9.55;1.98;;;;;;;6.75;100.00;99610.47;4995259;28;20057;-77
2023/11/06 04:29:38;;;;;;;11.65;1.88;;;;;;;6.71;100.00;99612.56;4995488;28;20041;-77
2023/11/06 04:32:04;;;;;;;6.57;1.70;;;;;;;6.66;100.00;99618.28;4993422;28;20042;-78
2023/11/06 04:34:29;;;;;;;11.00;1.90;;;;;;;6.62;100.00;99614.28;4994895;28;20042;-78
2023/11/06 04:36:54;;;;;;;8.63;1.52;;;;;;;6.61;100.00;99617.06;4994770;28;20508;-78
2023/11/06 04:39:20;;;;;;;10.50;1.60;;;;;;;6.62;100.00;99616.91;4994504;28;20045;-82
2023/11/06 04:41:45;;;;;;;13.25;1.80;;;;;;;6.58;100.00;99615.53;4994641;28;20113;-78
2023/11/06 04:44:10;;;;;;;7.60;1.42;;;;;;;6.54;100.00;99622.09;4993552;28;20053;-77
2023/11/06 04:46:36;;;;;;;13.00;1.70;;;;;;;6.51;100.00;99630.31;4994380;28;20053;-78
2023/11/06 04:49:01;;;;;;;10.63;1.83;;;;;;;6.51;100.00;99628.50;4992919;28;20149;-78
2023/11/06 04:51:27;;;;;;;8.23;1.45;;;;;;;6.49;100.00;99625.16;4994681;28;20144;-78
2023/11/06 04:53:52;;;;;;;13.52;2.45;;;;;;;6.48;100.00;99627.94;4994695;28;20038;-78
2023/11/06 04:56:18;;;;;;;14.82;1.60;;;;;;;6.46;100.00;99629.88;4993951;28;20080;-78
2023/11/06 04:58:43;;;;;;;9.75;1.60;;;;;;;6.47;100.00;99627.09;4994159;28;20175;-77
2023/11/06 05:01:09;;;;;;;13.00;1.45;;;;;;;6.46;100.00;99629.88;4993923;28;20051;-77
2023/11/06 05:03:35;;;;;;;9.35;1.48;;;;;;;6.47;100.00;99639.50;4994083;28;20471;-78
2023/11/06 05:06:00;;;;;;;14.73;2.05;;;;;;;6.43;100.00;99646.03;4993084;28;20042;-77
2023/11/06 05:08:28;;;;;;;12.38;1.88;;;;;;;6.39;100.00;99634.06;4992902;28;20133;-79
2023/11/06 05:10:55;;;;;;;11.77;1.83;;;;;;;6.36;100.00;99640.47;4994150;28;20069;-77
2023/11/06 05:13:21;;;;;;;13.75;1.83;;;;;;;6.38;100.00;99633.25;4992514;28;20062;-78
2023/11/06 05:15:46;;;;;;;12.25;2.45;;;;;;;6.39;100.00;99642.00;4993836;28;20038;-77
2023/11/06 05:18:11;;;;;;;11.35;1.40;;;;;;;6.38;100.00;99651.75;4993576;28;20084;-78
2023/11/06 05:20:41;;;;;;;10.35;1.40;;;;;;;6.41;100.00;99654.09;4993678;28;20053;-79
2023/11/06 05:23:06;;;;;;;10.23;1.80;;;;;;;6.41;100.00;99669.13;4993275;28;20477;-78
2023/11/06 05:25:32;;;;;;;13.18;1.80;;;;;;;6.38;100.00;99664.94;4993820;28;20066;-78
2023/11/06 05:27:57;;;;;;;11.95;1.88;;;;;;;6.34;100.00;99669.69;4992620;28;20382;-78
2023/11/06 05:30:22;;;;;;;11.98;1.83;;;;;;;6.33;100.00;99662.72;4993554;28;20065;-77
2023/11/06 05:32:48;;;;;;;10.10;1.73;;;;;;;6.35;100.00;99666.06;4994224;28;20033;-78
2023/11/06 05:35:14;;;;;;;6.22;1.60;;;;;;;6.39;100.00;99653.41;4994077;28;20042;-78
2023/11/06 05:37:40;;;;;;;9.05;1.50;;;;;;;6.43;100.00;99669.81;4993585;28;20121;-78
2023/11/06 05:40:12;;;;;;;10.90;1.65;;;;;;;6.47;100.00;99665.91;4993914;28;20034;-77
2023/11/06 05:42:37;;;;;;;10.23;2.00;;;;;;;6.49;100.00;99670.09;4993786;28;20034;-78
2023/11/06 05:45:03;;;;;;;14.02;1.80;;;;;;;6.52;100.00;99666.31;4992432;28;20037;-79
2023/11/06 05:47:31;;;;;;;9.38;1.67;;;;;;;6.52;100.00;99671.59;4993765;28;20034;-78
2023/11/06 05:49:56;;;;;;;14.48;2.58;;;;;;;6.56;100.00;99677.44;4993685;28;20056;-80
2023/11/06 05:52:21;;;;;;;9.02;1.83;;;;;;;6.57;100.00;99674.66;4992509;28;20045;-80
2023/11/06 05:54:47;;;;;;;14.07;1.98;;;;;;;6.55;100.00;99689.00;4993689;28;20034;-79
2023/11/06 05:57:12;;;;;;;9.80;1.77;;;;;;;6.49;100.00;99678.03;4993401;28;20030;-79
2023/11/06 05:59:38;;;;;;;7.70;1.77;;;;;;;6.48;100.00;99684.28;4992790;28;20062;-79
2023/11/06 06:02:03;;;;;;;10.48;1.70;;;;;;;6.48;100.00;99678.16;4993227;28;20084;-80
2023/11/06 06:04:30;;;;;;;11.40;2.08;;;;;;;6.46;100.00;99683.56;4993451;28;20035;-80
2023/11/06 06:06:57;;;;;;;9.40;1.83;;;;;;;6.48;100.00;99702.78;4993140;28;20125;-80
2023/11/06 06:09:23;;;;;;;9.18;2.00;;;;;;;6.50;100.00;99692.88;4993066;28;20524;-79
2023/11/06 06:11:48;;;;;;;6.45;1.67;;;;;;;6.50;100.00;99697.34;4992812;28;20035;-79
2023/11/06 06:14:14;;;;;;;7.70;1.70;;;;;;;6.49;100.00;99688.59;4993092;28;20038;-78
2023/11/06 06:16:39;;;;;;;10.80;1.73;;;;;;;6.48;100.00;99694.84;4993320;28;20056;-80
2023/11/06 06:19:06;;;;;;;7.38;1.85;;;;;;;6.45;100.00;99704.84;4993436;28;20119;-78
2023/11/06 06:21:32;;;;;;;10.40;2.47;;;;;;;6.48;100.00;99710.69;4992395;28;20121;-80
2023/11/06 06:23:57;;;;;;;19.40;1.90;;;;;;;6.50;100.00;99713.19;4993292;28;20124;-82
2023/11/06 06:26:23;;;;;;;6.70;1.73;;;;;;;6.51;100.00;99712.22;4993565;28;20133;-80
2023/11/06 06:28:51;;;;;;;9.32;1.75;;;;;;;6.50;100.00;99714.03;4993069;28;20092;-82
2023/11/06 06:31:18;;;;;;;12.82;2.03;;;;;;;6.50;100.00;99715.84;4993322;28;20049;-80
2023/11/06 06:33:43;;;;;;;9.90;1.63;;;;;;;6.51;100.00;99714.88;4992909;28;20368;-79
2023/11/06 06:36:12;;;;;;;11.07;2.05;;;;;;;6.50;100.00;99718.47;4991713;28;20033;-80
2023/11/06 06:38:37;;;;;;;15.43;3.42;;;;;;;6.51;100.00;99720.16;4992985;28;20141;-81
2023/11/06 06:41:03;;;;;;;15.43;1.67;;;;;;;6.55;100.00;99724.16;4993682;28;20105;-81
2023/11/06 06:43:29;;;;;;;12.35;2.00;;;;;;;6.54;100.00;99730.44;4993155;28;20030;-81
2023/11/06 06:45:55;;;;;;;5.95;1.70;;;;;;;6.53;100.00;99731.41;4993122;28;20046;-79
2023/11/06 06:48:20;;;;;;;5.90;1.70;;;;;;;6.56;100.00;99733.78;4991623;28;20022;-82
2023/11/06 06:50:45;;;;;;;10.68;1.95;;;;;;;6.50;100.00;99731.69;4992694;28;20121;-80
2023/11/06 06:53:11;;;;;;;9.05;2.03;;;;;;;6.50;100.00;99735.16;4992748;28;20384;-81
2023/11/06 06:55:37;;;;;;;9.10;1.80;;;;;;;6.48;100.00;99737.13;4992535;28;20084;-81
2023/11/06 06:58:04;;;;;;;9.40;1.77;;;;;;;6.52;100.00;99727.09;4993138;28;20035;-82
2023/11/06 07:00:31;;;;;;;10.85;1.95;;;;;;;6.53;100.00;99734.06;4992626;28;20054;-80
2023/11/06 07:02:56;;;;;;;9.07;1.70;;;;;;;6.54;100.00;99751.59;4992963;28;20077;-80
2023/11/06 07:05:22;;;;;;;16.48;2.80;;;;;;;6.53;100.00;99769.25;4991371;28;20046;-79
2023/11/06 07:07:47;;;;;;;13.13;2.20;;;;;;;6.57;100.00;99761.03;4992591;28;20030;-81
2023/11/06 07:10:13;;;;;;;10.52;1.73;;;;;;;6.60;100.00;99771.31;4993457;28;20052;-83
2023/11/06 07:12:38;;;;;;;7.13;1.63;;;;;;;6.70;100.00;99767.72;4994103;28;20117;-80
2023/11/06 07:15:04;;;;;;;9.57;1.98;;;;;;;6.79;100.00;99773.97;4996763;28;20042;-81
2023/11/06 07:17:30;;;;;;;11.00;1.60;;;;;;;6.85;100.00;99768.13;4993964;28;20106;-81
2023/11/06 07:19:55;;;;;;;6.82;1.92;;;;;;;6.92;100.00;99773.66;4994063;28;20042;-81
2023/11/06 07:22:21;;;;;;;7.35;1.85;;;;;;;6.97;100.00;99765.31;4993418;28;20070;-80
2023/11/06 07:24:46;;;;;;;6.70;1.67;;;;;;;7.01;100.00;99764.88;4992072;28;20538;-81
2023/11/06 07:27:11;;;;;;;8.85;1.60;;;;;;;7.08;100.00;99778.38;4992435;28;20476;-79
2023/11/06 07:29:37;;;;;;;9.60;1.40;;;;;;;7.16;100.00;99767.91;4991413;28;20375;-79
2023/11/06 07:32:02;;;;;;;9.70;1.60;;;;;;;7.25;100.00;99776.81;4993698;28;20465;-79
2023/11/06 07:34:28;;;;;;;13.20;2.30;;;;;;;7.32;100.00;99779.72;4994867;28;20030;-82
2023/11/06 07:36:53;;;;;;;8.80;1.58;;;;;;;7.36;100.00;99781.06;4995641;28;20395;-80
2023/11/06 07:39:18;;;;;;;7.20;1.35;;;;;;;7.41;100.00;99787.63;4995755;28;20038;-80
2023/11/06 07:41:44;;;;;;;9.77;1.58;;;;;;;7.45;100.00;99789.97;4994404;28;20034;-80
2023/11/06 07:44:09;;;;;;;8.00;1.38;;;;;;;7.52;100.00;99776.00;4995733;28;20501;-79
2023/11/06 07:46:35;;;;;;;6.30;1.60;;;;;;;7.49;100.00;99786.88;4994693;28;20475;-79
2023/11/06 07:49:00;;;;;;;3.83;1.23;;;;;;;7.47;100.00;99793.31;4995885;28;20037;-78
2023/11/06 07:51:26;;;;;;;5.13;1.08;;;;;;;7.44;100.00;99794.44;4995898;28;20054;-81
2023/11/06 07:53:51;;;;;;;3.38;1.40;;;;;;;7.52;100.00;99777.84;4996666;28;20026;-80
2023/11/06 07:56:18;;;;;;;8.05;1.30;;;;;;;7.59;100.00;99795.63;4996004;28;20034;-80
2023/11/06 07:58:44;;;;;;;5.30;1.42;;;;;;;7.73;100.00;99783.75;4996809;28;20045;-80
2023/11/06 08:01:09;;;;;;;6.32;1.40;;;;;;;7.83;100.00;99791.63;4997199;28;20054;-80
2023/11/06 08:03:35;;;;;;;6.05;1.05;;;;;;;7.95;100.00;99789.63;4995740;28;20124;-80
2023/11/06 08:06:00;;;;;;;8.73;1.38;;;;;;;8.10;100.00;99784.66;4995751;28;20034;-78
2023/11/06 08:08:25;;;;;;;12.75;1.42;;;;;;;8.22;100.00;99790.59;4995564;28;20026;-80
2023/11/06 08:10:51;;;;;;;4.57;1.10;;;;;;;8.29;100.00;99784.53;4995362;28;20093;-82
2023/11/06 08:13:17;;;;;;;3.88;0.93;;;;;;;8.22;100.00;99775.50;4994430;28;20063;-80
2023/11/06 08:15:42;;;;;;;4.43;1.10;;;;;;;8.33;100.00;99797.47;4996104;28;20037;-84
2023/11/06 08:18:08;;;;;;;6.20;1.45;;;;;;;8.33;100.00;99802.78;4995908;28;20030;-82
2023/11/06 08:20:33;;;;;;;6.25;1.40;;;;;;;8.34;100.00;99797.31;4995977;28;20451;-83
2023/11/06 08:22:58;;;;;;;12.70;1.70;;;;;;;8.34;100.00;99797.31;4995150;28;20038;-82
2023/11/06 08:25:26;;;;;;;10.43;2.05;;;;;;;8.24;100.00;99791.25;4994885;28;20062;-86
2023/11/06 08:27:52;;;;;;;10.57;1.73;;;;;;;8.30;100.00;99794.16;4994811;28;20042;-87
2023/11/06 08:30:18;;;;;;;17.45;1.80;;;;;;;8.33;100.00;99808.94;4994873;28;20073;-85
2023/11/06 08:32:44;;;;;;;9.13;2.42;;;;;;;8.36;100.00;99811.28;4994394;28;20506;-86
2023/11/06 08:35:09;;;;;;;9.57;2.28;;;;;;;8.47;100.00;99802.31;4994676;28;20037;-82
2023/11/06 08:37:35;;;;;;;6.53;2.10;;;;;;;8.54;100.00;99797.22;4994492;28;20053;-81
2023/11/06 08:40:00;;;;;;;9.48;2.53;;;;;;;8.60;100.00;99801.94;4994665;28;20040;-84
2023/11/06 08:42:25;;;;;;;9.85;2.22;;;;;;;8.72;100.00;99800.72;4994441;28;20069;-84
2023/11/06 08:44:51;;;;;;;10.15;2.10;;;;;;;8.70;100.00;99799.19;4993637;28;20038;-85
2023/11/06 08:47:16;;;;;;;9.43;2.33;;;;;;;8.68;100.00;99806.47;4994674;28;20030;-84
2023/11/06 08:49:42;;;;;;;7.25;2.20;;;;;;;8.71;100.00;99809.66;4994422;28;20062;-83
2023/11/06 08:52:08;;;;;;;10.85;2.20;;;;;;;8.72;100.00;99806.03;4994393;28;20046;-85
2023/11/06 08:54:37;;;;;;;15.88;2.40;;;;;;;8.69;100.00;99808.97;4994179;28;20379;-84
2023/11/06 08:57:03;;;;;;;14.98;2.10;;;;;;;8.69;100.00;99806.31;4993399;28;20134;-83
2023/11/06 08:59:28;;;;;;;15.07;2.15;;;;;;;8.68;100.00;99804.66;4994061;28;20070;-83
2023/11/06 09:01:54;;;;;;;13.95;1.83;;;;;;;8.65;100.00;99821.69;4993692;28;20057;-83
2023/11/06 09:04:19;;;;;;;10.27;1.63;;;;;;;8.73;100.00;99814.81;4993700;28;20113;-84
2023/11/06 09:06:45;;;;;;;6.50;2.38;;;;;;;8.70;100.00;99810.63;4993860;28;20043;-86
2023/11/06 09:09:10;;;;;;;9.90;2.05;;;;;;;8.84;100.00;99825.19;4993918;28;20118;-86
2023/11/06 09:11:40;;;;;;;3.70;1.38;;;;;;;8.88;100.00;99825.72;4992375;28;20328;-82
2023/11/06 09:14:07;;;;;;;12.68;1.80;;;;;;;9.00;100.00;99822.66;4994033;28;20096;-83
2023/11/06 09:16:34;;;;;;;6.20;1.40;;;;;;;8.97;100.00;99824.78;4993828;28;20094;-84
2023/11/06 09:19:00;;;;;;;6.85;1.63;;;;;;;8.94;100.00;99825.09;4993401;28;20034;-84
2023/11/06 09:21:25;;;;;;;8.75;1.48;;;;;;;8.90;100.00;99827.22;4993349;28;20498;-81
2023/11/06 09:23:51;;;;;;;13.88;1.90;;;;;;;8.83;100.00;99834.94;4993611;28;20070;-85
2023/11/06 09:26:16;;;;;;;7.82;1.60;;;;;;;8.86;100.00;99839.13;4993616;28;20510;-82
2023/11/06 09:28:42;;;;;;;4.97;1.48;;;;;;;8.94;100.00;99843.66;4994211;28;20026;-84
2023/11/06 09:31:07;;;;;;;5.63;1.55;;;;;;;8.95;100.00;99840.84;4994332;28;20061;-82
2023/11/06 09:33:33;;;;;;;8.82;1.42;;;;;;;9.02;100.00;99854.34;4994867;28;20053;-83
2023/11/06 09:35:58;;;;;;;8.07;1.70;;;;;;;9.02;100.00;99857.00;4994645;28;20371;-81
2023/11/06 09:38:24;;;;;;;6.05;1.35;;;;;;;9.05;100.00;99855.88;4994440;28;20089;-80
2023/11/06 09:40:49;;;;;;;6.35;1.75;;;;;;;9.04;100.00;99873.59;4994454;28;20091;-82
2023/11/06 09:43:16;;;;;;;6.88;1.40;;;;;;;9.05;100.00;99867.31;4993702;28;20477;-81
2023/11/06 09:45:42;;;;;;;8.05;1.52;;;;;;;9.14;100.00;99874.34;4991791;28;20057;-79
2023/11/06 09:48:11;;;;;;;10.07;1.48;;;;;;;9.34;100.00;99875.03;4992938;28;20121;-82
2023/11/06 09:50:41;;;;;;;5.30;1.10;;;;;;;9.42;100.00;99881.34;4991933;28;20102;-86
2023/11/06 09:53:07;;;;;;;7.72;2.25;;;;;;;9.69;100.00;99899.00;4993293;28;20030;-85
2023/11/06 09:55:34;;;;;;;7.38;1.23;;;;;;;9.76;100.00;99891.22;4991629;28;20031;-85
2023/11/06 09:58:01;;;;;;;6.03;1.10;;;;;;;9.52;100.00;99906.84;4992027;28;20043;-80
2023/11/06 10:00:27;;;;;;;7.63;1.30;;;;;;;9.45;100.00;99904.94;4993110;28;20487;-83
2023/11/06 10:02:54;;;;;;;9.40;1.30;;;;;;;9.45;100.00;99915.56;4992981;28;20035;-82
2023/11/06 10:05:20;;;;;;;13.85;2.25;;;;;;;9.51;100.00;99934.38;4993131;28;20034;-82
2023/11/06 10:07:51;;;;;;;12.23;1.83;;;;;;;9.49;100.00;99919.59;4992973;28;20034;-84
2023/11/06 10:10:19;;;;;;;4.80;1.20;;;;;;;9.48;100.00;99934.69;4993428;28;20443;-83
2023/11/06 10:12:58;;;;;;;6.63;1.58;;;;;;;9.43;100.00;99928.16;4993443;28;20110;-83
2023/11/06 10:15:26;;;;;;;8.25;1.67;;;;;;;9.42;100.00;99932.66;4993579;28;20053;-80
2023/11/06 10:17:53;;;;;;;7.85;1.77;;;;;;;9.41;100.00;99935.47;4992997;28;20038;-80
2023/11/06 10:20:18;;;;;;;4.05;1.20;;;;;;;9.28;100.00;99934.00;4993837;28;20030;-79
2023/11/06 10:22:56;;;;;;;7.63;1.35;;;;;;;9.23;100.00;99938.13;4994139;28;20521;-86
2023/11/06 10:25:28;;;;;;;7.22;1.80;;;;;;;9.15;100.00;99949.50;4993739;28;20077;-86
2023/11/06 10:27:57;;;;;;;7.93;1.58;;;;;;;9.11;100.00;99946.31;4993880;28;20030;-86
2023/11/06 10:30:24;;;;;;;7.25;1.83;;;;;;;9.03;100.00;99943.56;4993603;28;20467;-82
2023/11/06 10:32:49;;;;;;;6.10;1.27;;;;;;;9.02;100.00;99944.56;4993859;28;20030;-85
2023/11/06 10:35:17;;;;;;;7.63;1.27;;;;;;;9.03;100.00;99950.72;4993783;28;20376;-83
2023/11/06 10:37:44;;;;;;;3.90;1.35;;;;;;;9.00;100.00;99954.47;4993664;28;20113;-84
2023/11/06 10:40:13;;;;;;;8.23;1.40;;;;;;;8.95;100.00;99956.78;4994146;28;20113;-82
2023/11/06 10:42:42;;;;;;;9.10;1.33;;;;;;;8.95;100.00;99960.25;4993757;28;20030;-82
2023/11/06 10:45:14;;;;;;;6.75;1.40;;;;;;;8.97;100.00;99960.09;4993902;28;20402;-82
2023/11/06 10:48:11;;;;;;;7.20;1.58;;;;;;;9.10;100.00;99957.91;4994069;28;20034;-82
2023/11/06 10:50:38;;;;;;;8.05;1.40;;;;;;;9.17;100.00;99969.59;4993548;28;20042;-83
2023/11/06 10:53:05;;;;;;;5.35;1.20;;;;;;;9.26;100.00;99965.19;4993105;28;20493;-82
2023/11/06 10:55:32;;;;;;;4.82;1.35;;;;;;;9.24;100.00;99969.84;4993625;28;20436;-81
2023/11/06 10:57:59;;;;;;;3.60;1.00;;;;;;;9.38;100.00;99970.28;4993454;28;20083;-81
2023/11/06 11:00:24;;;;;;;4.93;1.08;;;;;;;9.57;100.00;99964.81;4993097;28;20046;-82
2023/11/06 11:02:50;;;;;;;10.63;1.83;;;;;;;9.79;100.00;99967.94;4993160;28;20376;-82
2023/11/06 11:05:18;;;;;;;4.35;1.23;;;;;;;9.78;100.00;99967.13;4993409;28;20045;-83
2023/11/06 11:07:46;;;;;;;4.93;1.30;;;;;;;9.65;100.00;99964.03;4995221;28;20064;-85
2023/11/06 11:10:17;;;;;;;4.70;1.58;;;;;;;9.55;100.00;99972.06;4997120;28;20087;-82
2023/11/06 11:12:43;;;;;;;5.88;1.20;;;;;;;9.51;100.00;99968.09;4997654;28;20030;-79
2023/11/06 11:15:09;;;;;;;5.60;1.08;;;;;;;9.51;100.00;99973.41;4997427;28;20456;-83
2023/11/06 11:17:35;;;;;;;10.43;1.50;;;;;;;9.45;100.00;99976.63;4997342;28;20249;-80
2023/11/06 11:20:07;;;;;;;3.00;0.90;;;;;;;9.48;100.00;99961.25;4997493;28;20031;-83
2023/11/06 11:22:53;;;;;;;5.85;1.45;;;;;;;9.54;100.00;99975.75;4996978;28;20038;-82
2023/11/06 11:25:53;;;;;;;6.05;1.80;;;;;;;9.68;100.00;99975.16;4996632;28;20132;-82